Terminal Aerodrome Forecast
Issued by NWS Greer, SC

Home | Current Version | Previous Version | Text Only | Print | Product List | Glossary On
Versions: 1 2 3 4 5 6 7 8 9 10 11 12 13 14 15 16 17 18 19 20 21 22 23 24 25 26
000
FTUS42 KGSP 301723
TAFCLT
TAF
KCLT 301723Z 3018/3118 24006KT P6SM VCSH SCT050 BKN100
      TEMPO 3019/3023 VRB10G20KT 4SM -TSRA BKN045CB
     FM310200 20004KT P6SM SCT070
     FM311500 22005KT P6SM BKN060=

USA.gov is the U.S. government's official web portal to all federal, state and local government web resources and services.